• Join FlightAware (Why Join?)
  • Login
  • US Flag 
03:29AM EDT


 

Airport Tracker/Info


-or-


 

Live Flight TrackerFlight Track Log ✈ UPS2061 ✈ 23-Aug-2013 ✈ KBDL - KSDF

Flight Track Log - Related Links

Times and Time Zones

All times are in EDT time to prevent confusion due to time zone crossing. See the UPS2061 flight status page for this flight to view local times or setup timezone preferences in your user account.

Time Position Orientation Groundspeed Altitude Reporting Facility
EDT Latitude Longitude Course Direction KTS MPH feet Rate Location/Type
07:20AM 41.9417 -72.6969 317° Northwest 152 175 900  Level Boston Center
07:21AM 41.9956 -72.7642 317° Northwest 173 199 4,100 2,760 Climbing Boston Center
07:22AM 42.0581 -72.8036 335° Northwest 217 250 7,800 3,240 Climbing Boston Center
07:23AM 42.1267 -72.8461 335° Northwest 253 291 10,600 2,460 Climbing Boston Center
07:29AM 42.2400 -73.5270 335° Northwest 416 479 24,000 2,340 Climbing FlightAware
07:29AM 42.2320 -73.6220 264° West 427 491 25,000 1,680 Climbing FlightAware
07:30AM 42.2230 -73.7110 262° West 432 497 26,000 1,620 Climbing FlightAware
07:31AM 42.2100 -73.8510 263° West 441 507 27,300 1,680 Climbing FlightAware
07:31AM 42.2030 -73.9300 263° West 441 507 28,300 1,980 Climbing FlightAware
07:32AM 42.1920 -74.0430 263° West 436 502 29,700 1,920 Climbing FlightAware
07:33AM 42.1840 -74.1290 263° West 433 498 30,700 1,800 Climbing FlightAware
07:33AM 42.1740 -74.2300 262° West 429 494 31,800 1,740 Climbing FlightAware
07:34AM 42.1670 -74.2974 262° West 428 493 32,500 1,620 Climbing FlightAware ADS-B
07:34AM 42.1554 -74.4138 262° West 424 488 33,700 1,080 Climbing FlightAware ADS-B
07:35AM 42.1457 -74.5105 262° West 423 487 34,000 240 Climbing FlightAware ADS-B
07:35AM 42.1375 -74.5924 262° West 422 486 34,000  Level FlightAware ADS-B
07:36AM 42.1281 -74.6872 262° West 417 480 34,000  Level FlightAware ADS-B
07:37AM 42.1192 -74.7733 262° West 415 478 34,000  Level FlightAware ADS-B
07:37AM 42.1111 -74.8515 262° West 413 475 34,000  Level FlightAware ADS-B
07:38AM 42.1019 -74.9406 262° West 412 474 34,000  Level FlightAware ADS-B
07:38AM 42.0929 -75.0281 262° West 411 473 34,000  Level FlightAware ADS-B
07:39AM 42.0843 -75.1089 262° West 412 474 34,000  Level FlightAware ADS-B
07:39AM 42.0761 -75.1868 262° West 412 474 34,000  Level FlightAware ADS-B
07:40AM 42.0632 -75.2772 259° West 412 474 34,000  Level FlightAware ADS-B
07:41AM 42.0375 -75.3750 251° West 412 474 34,000  Level FlightAware ADS-B
07:41AM 41.9970 -75.4780 242° Southwest 412 474 34,000  Level FlightAware
07:42AM 41.9640 -75.5580 241° Southwest 411 473 34,000  Level FlightAware
07:43AM 41.9340 -75.6280 240° Southwest 410 472 34,000  Level FlightAware
07:43AM 41.9010 -75.7080 241° Southwest 410 472 34,000  Level FlightAware
07:44AM 41.8670 -75.7890 241° Southwest 410 472 34,000  Level FlightAware
07:44AM 41.8380 -75.8600 241° Southwest 410 472 34,000  Level FlightAware
07:45AM 41.8140 -75.9172 241° Southwest 410 472 34,000  Level FlightAware ADS-B
07:45AM 41.7839 -75.9891 241° Southwest 411 473 34,000  Level FlightAware ADS-B
07:46AM 41.7505 -76.0684 241° Southwest 412 474 34,000  Level FlightAware ADS-B
07:46AM 41.7198 -76.1411 241° Southwest 412 474 34,000 60 Level FlightAware ADS-B
07:47AM 41.6886 -76.2154 241° Southwest 411 473 34,100  Climbing FlightAware ADS-B
07:47AM 41.6604 -76.2819 240° Southwest 410 472 34,000 -120 Descending FlightAware ADS-B
07:48AM 41.6272 -76.3603 240° Southwest 409 471 34,000  Level FlightAware ADS-B
07:49AM 41.5984 -76.4281 240° Southwest 408 470 34,000  Level FlightAware ADS-B
07:49AM 41.5630 -76.5113 240° Southwest 407 468 34,000  Level FlightAware ADS-B
07:50AM 41.5337 -76.5801 240° Southwest 408 470 34,000  Level FlightAware ADS-B
07:50AM 41.5042 -76.6491 240° Southwest 408 470 34,000  Level FlightAware ADS-B
07:51AM 41.4711 -76.7263 240° Southwest 408 470 34,000  Level FlightAware ADS-B
07:51AM 41.4411 -76.7961 240° Southwest 408 470 34,000  Level FlightAware ADS-B
07:52AM 41.4127 -76.8620 240° Southwest 408 470 34,000  Level FlightAware ADS-B
07:53AM 41.3719 -76.9567 240° Southwest 408 470 34,000  Level FlightAware ADS-B
07:54AM 41.3197 -77.0773 240° Southwest 408 470 34,000  Level FlightAware ADS-B
07:54AM 41.2920 -77.1400 240° Southwest 407 468 34,000  Level FlightAware
07:54AM 41.2835 -77.1604 241° Southwest 408 470 34,000  Level FlightAware ADS-B
07:55AM 41.2310 -77.2800 240° Southwest 410 472 34,000  Level FlightAware
07:56AM 41.1990 -77.3530 240° Southwest 412 474 34,000  Level FlightAware
07:56AM 41.1630 -77.4370 240° Southwest 414 476 34,000  Level FlightAware
07:57AM 41.1290 -77.5140 240° Southwest 413 475 34,000  Level FlightAware
07:58AM 41.0910 -77.5990 239° Southwest 407 468 34,000  Level FlightAware
07:58AM 41.0630 -77.6620 239° Southwest 406 467 34,000  Level FlightAware
07:59AM 41.0280 -77.7430 240° Southwest 409 471 34,000  Level FlightAware
07:59AM 40.9950 -77.8170 239° Southwest 410 472 34,000  Level FlightAware
08:00AM 40.9710 -77.8830 244° Southwest 407 468 34,000  Level FlightAware
08:00AM 40.9510 -77.9630 252° West 404 465 34,000  Level FlightAware
08:01AM 40.9270 -78.0610 252° West 401 461 34,000  Level FlightAware
08:02AM 40.9030 -78.1590 252° West 401 461 34,000  Level FlightAware
08:02AM 40.8800 -78.2460 251° West 403 464 34,000  Level FlightAware
08:03AM 40.8560 -78.3420 252° West 405 466 34,000  Level FlightAware
08:04AM 40.8340 -78.4270 251° West 408 470 34,000  Level FlightAware
08:04AM 40.8140 -78.5080 252° West 408 470 34,000  Level FlightAware
08:05AM 40.7920 -78.5910 251° West 408 470 34,000  Level FlightAware
08:05AM 40.7700 -78.6770 251° West 408 470 34,000  Level FlightAware
08:06AM 40.7490 -78.7590 251° West 409 471 34,000  Level FlightAware
08:07AM 40.7250 -78.8540 252° West 411 473 34,000  Level FlightAware
08:07AM 40.7100 -78.9100 251° West 412 474 34,000  Level FlightAware
08:08AM 40.6860 -79.0030 251° West 413 475 34,000  Level FlightAware
08:08AM 40.6620 -79.0930 251° West 415 478 34,000  Level FlightAware
08:09AM 40.6430 -79.1670 251° West 417 480 34,000  Level FlightAware
08:10AM 40.6160 -79.2690 251° West 419 482 34,000  Level FlightAware
08:10AM 40.5950 -79.3470 250° West 420 483 34,000  Level FlightAware
08:11AM 40.5780 -79.4130 251° West 420 483 34,000  Level FlightAware
08:11AM 40.5530 -79.5060 251° West 422 486 34,000  Level FlightAware
08:12AM 40.5280 -79.6000 251° West 430 495 34,000  Level FlightAware
08:13AM 40.4980 -79.7130 251° West 429 494 34,000  Level FlightAware
08:13AM 40.4730 -79.8020 250° West 429 494 34,000  Level FlightAware
08:14AM 40.4520 -79.8820 251° West 427 491 34,000  Level FlightAware
08:15AM 40.4280 -79.9700 250° West 429 494 34,000  Level FlightAware
08:15AM 40.4030 -80.0620 250° West 435 501 34,000  Level FlightAware
08:16AM 40.3800 -80.1460 250° West 431 496 34,000  Level FlightAware
08:16AM 40.3540 -80.2400 250° West 427 491 34,000  Level FlightAware
08:17AM 40.3310 -80.3240 250° West 429 494 34,000  Level FlightAware
08:18AM 40.2960 -80.4510 250° West 434 499 34,000  Level FlightAware
08:18AM 40.2680 -80.5540 250° West 434 499 34,000  Level FlightAware
08:19AM 40.2400 -80.6540 250° West 433 498 34,000  Level FlightAware
08:20AM 40.2170 -80.7350 250° West 433 498 34,000  Level FlightAware
08:20AM 40.1900 -80.8300 250° West 432 497 34,000  Level FlightAware
08:21AM 40.1640 -80.9260 251° West 430 495 34,000  Level FlightAware
08:22AM 40.1400 -81.0070 249° West 430 495 34,000  Level FlightAware
08:22AM 40.1170 -81.0910 250° West 431 496 34,000  Level FlightAware
08:23AM 40.0940 -81.1720 250° West 432 497 34,000  Level FlightAware
08:23AM 40.0680 -81.2620 249° West 435 501 34,000  Level FlightAware
08:24AM 40.0360 -81.3730 249° West 435 501 34,000  Level FlightAware
08:24AM 40.0110 -81.4620 250° West 436 502 34,000  Level FlightAware
08:25AM 39.9850 -81.5510 249° West 436 502 34,000  Level FlightAware
08:26AM 39.9630 -81.6320 251° West 435 501 34,000  Level FlightAware
08:26AM 39.9440 -81.7130 253° West 436 502 34,000  Level FlightAware
08:27AM 39.9200 -81.8150 253° West 436 502 34,000  Level FlightAware
08:27AM 39.8990 -81.9030 253° West 436 502 34,000  Level FlightAware
08:28AM 39.8810 -81.9760 252° West 435 501 34,000  Level FlightAware
08:29AM 39.8580 -82.0730 253° West 436 502 34,000  Level FlightAware
08:29AM 39.8360 -82.1660 253° West 437 503 34,000  Level FlightAware
08:30AM 39.8140 -82.2570 253° West 438 504 34,000  Level FlightAware
08:30AM 39.7960 -82.3320 253° West 438 504 34,000  Level FlightAware
08:31AM 39.7740 -82.4250 253° West 438 504 34,000  Level FlightAware
08:31AM 39.7510 -82.5170 252° West 438 504 34,000  Level FlightAware
08:32AM 39.7310 -82.6020 253° West 438 504 34,000  Level FlightAware
08:33AM 39.7090 -82.6880 252° West 438 504 34,000  Level FlightAware
08:33AM 39.6880 -82.7740 252° West 437 503 34,000 -600 Level FlightAware
08:34AM 39.6650 -82.8690 253° West 438 504 33,300 -1,260 Descending FlightAware
08:34AM 39.6460 -82.9460 252° West 436 502 32,600 -1,380 Descending FlightAware
08:35AM 39.6220 -83.0410 252° West 442 509 31,700 -1,500 Descending FlightAware
08:36AM 39.5990 -83.1330 252° West 448 516 30,800 -1,440 Descending FlightAware
08:36AM 39.5790 -83.2160 253° West 452 520 30,100 -720 Descending FlightAware
08:37AM 39.5550 -83.3090 252° West 455 524 30,000 -120 Descending FlightAware
08:37AM 39.5330 -83.3960 252° West 457 526 30,000  Level FlightAware
08:38AM 39.5080 -83.4980 252° West 457 526 30,000  Level FlightAware
08:38AM 39.4880 -83.5760 252° West 456 525 30,000  Level FlightAware
08:39AM 39.4630 -83.6720 251° West 457 526 30,000  Level FlightAware
08:40AM 39.4370 -83.7710 251° West 460 529 30,000  Level FlightAware
08:40AM 39.4080 -83.8500 245° Southwest 464 534 30,000  Level FlightAware
08:41AM 39.3680 -83.9370 239° Southwest 466 536 30,000  Level FlightAware
08:41AM 39.3310 -84.0180 239° Southwest 467 537 30,000  Level FlightAware
08:42AM 39.2960 -84.0960 240° Southwest 467 537 30,000  Level FlightAware
08:43AM 39.2530 -84.1900 239° Southwest 469 540 30,000 -600 Level FlightAware
08:43AM 39.2170 -84.2680 239° Southwest 465 535 29,300 -1,380 Descending FlightAware
08:44AM 39.1600 -84.3920 239° Southwest 464 534 28,000 -3,240 Descending FlightAware
08:45AM 39.1090 -84.5020 239° Southwest 461 531 24,000 -4,320 Descending FlightAware
08:45AM 39.0690 -84.5900 240° Southwest 448 516 22,100 -2,820 Descending FlightAware
08:46AM 39.0270 -84.6670 235° Southwest 440 506 20,500 -2,580 Descending FlightAware
08:47AM 38.9820 -84.7290 227° Southwest 436 502 19,200 -2,520 Descending FlightAware
08:47AM 38.9270 -84.7880 220° Southwest 432 497 17,700 -2,760 Descending FlightAware
08:48AM 38.8690 -84.8440 217° Southwest 419 482 15,900 -2,940 Descending FlightAware
08:48AM 38.8120 -84.9000 217° Southwest 400 460 14,200 -2,520 Descending FlightAware
08:49AM 38.7590 -84.9520 217° Southwest 403 464 12,900 -1,500 Descending FlightAware
08:50AM 38.7050 -85.0040 217° Southwest 401 461 12,400 -780 Descending FlightAware
08:50AM 38.6560 -85.0510 217° Southwest 399 459 12,000 -420 Descending FlightAware
08:51AM 38.5930 -85.1110 217° Southwest 397 457 11,900 -480 Descending FlightAware
08:51AM 38.5420 -85.1600 217° Southwest 367 422 11,400 -840 Descending FlightAware
08:52AM 38.5000 -85.2000 217° Southwest 338 389 11,000 -1,020 Descending FlightAware
08:53AM 38.4580 -85.2400 217° Southwest 309 356 10,300 -1,620 Descending FlightAware
08:53AM 38.4350 -85.2630 218° Southwest 300 345 9,500 -2,280 Descending FlightAware
08:53AM 38.4080 -85.2890 217° Southwest 292 336 8,600 -1,920 Descending FlightAware
08:54AM 38.3870 -85.3090 217° Southwest 289 333 8,100 -1,500 Descending FlightAware
08:54AM 38.3770 -85.3180 215° Southwest 289 333 7,900 -1,680 Descending FlightAware
08:54AM 38.3530 -85.3410 217° Southwest 289 333 7,200 -1,140 Descending FlightAware
08:55AM 38.3220 -85.3710 217° Southwest 287 330 6,900 -360 Descending FlightAware
08:55AM 38.3030 -85.3900 218° Southwest 289 333 6,900  Level FlightAware
08:55AM 38.2820 -85.4100 217° Southwest 290 334 6,900  Level FlightAware
08:56AM 38.2610 -85.4300 217° Southwest 292 336 6,900 -540 Level FlightAware
08:56AM 38.2360 -85.4620 225° Southwest 279 321 6,500 -1,080 Descending FlightAware
08:56AM 38.2320 -85.4740 247° West 275 316 6,300 -1,200 Descending FlightAware
08:57AM 38.2260 -85.5010 254° West 273 314 6,000 -600 Descending FlightAware
08:57AM 38.2180 -85.5410 256° West 273 314 5,900 -300 Descending FlightAware
08:57AM 38.2120 -85.5710 256° West 276 318 5,800  Descending FlightAware
08:58AM 38.2150 -85.6140 275° West 237 273 5,900 120 Climbing FlightAware
08:58AM 38.2160 -85.6180 288° West 232 267 5,900 -240 Level FlightAware
08:58AM 38.2330 -85.6360 320° Northwest 222 255 5,800 -1,200 Descending FlightAware
08:59AM 38.2530 -85.6440 343° North 220 253 5,100 -2,040 Descending FlightAware
08:59AM 38.2620 -85.6470 345° North 219 252 4,800 -1,740 Descending FlightAware
08:59AM 38.2850 -85.6550 345° North 216 249 4,100 -1,200 Descending FlightAware
08:59AM 38.3060 -85.6630 343° North 213 245 3,900 -480 Descending FlightAware
09:00AM 38.3090 -85.6640 345° North 213 245 3,900 -840 Level FlightAware
09:00AM 38.3170 -85.6710 326° Northwest 213 245 3,700 -1,200 Descending FlightAware
09:00AM 38.3210 -85.6780 306° West 211 243 3,600 -420 Descending FlightAware
09:00AM 38.3240 -85.6840 303° West 206 237 3,600 -660 Level FlightAware
09:00AM 38.3260 -85.7130 275° West 197 227 3,300 -900 Descending FlightAware
09:01AM 38.3230 -85.7300 257° West 194 223 3,100 -1,020 Descending FlightAware
09:01AM 38.3170 -85.7530 252° West 194 223 2,700 -1,020 Descending FlightAware
09:01AM 38.3060 -85.7730 235° Southwest 188 216 2,400 -600 Descending FlightAware
09:01AM 38.3010 -85.7780 218° Southwest 183 211 2,400  Level FlightAware
09:02AM 38.2920 -85.7830 204° Southwest 180 207 2,400 -540 Level FlightAware
09:02AM 38.2730 -85.7770 166° South 176 203 2,100 -840 Descending FlightAware
09:02AM 38.2580 -85.7720 165° South 157 181 1,800 -900 Descending FlightAware
09:03AM 38.2450 -85.7680 166° South 143 165 1,500 -780 Descending FlightAware
09:03AM 38.2320 -85.7630 163° South 140 161 1,300 -720 Descending FlightAware
09:03AM 38.2170 -85.7590 168° South 140 161 1,000 -720 Descending FlightAware
09:04AM 38.2040 -85.7540 163° South 138 159 800 -780 Descending FlightAware
09:04AM 38.1920 -85.7500 165° South 137 158 500 -900 Descending FlightAware
09:04AM 38.1830 -85.7480 170° South 141 162 300 -300 Descending FlightAware
09:05AM 38.1680 -85.7420 163° South 141 162 300  Level FlightAware
09:10AM 38.1667 -85.7333 208° Southwest  Level FlightAware Approximate
09:11AM 38.1741 -85.7365 208° Southwest  Level Estimated
09:12AM 38.1741 -85.7365 208° Southwest  Level Estimated